createdAt,value
2018-07-07T00:01:06.833Z,74.50
2018-07-07T00:02:38.403Z,71.40
2018-07-07T00:04:09.975Z,75.60
2018-07-07T00:05:41.546Z,72.90
2018-07-07T00:08:44.790Z,78.50
2018-07-07T00:10:16.262Z,76.10
2018-07-07T00:11:47.834Z,78.70
2018-07-07T00:13:19.406Z,75.10
2018-07-07T00:14:50.978Z,74.40
2018-07-07T00:16:22.551Z,70.30
2018-07-07T00:17:54.121Z,70.20
2018-07-07T00:19:25.693Z,70.40
2018-07-07T00:20:57.269Z,66.80
2018-07-07T00:22:28.837Z,66.70
2018-07-07T00:24:00.409Z,65.30
2018-07-07T00:25:31.980Z,67.50
2018-07-07T00:27:03.904Z,66.30
2018-07-07T00:28:35.124Z,68.00
2018-07-07T00:30:06.695Z,66.30
2018-07-07T00:31:38.266Z,72.20
2018-07-07T00:33:09.838Z,73.90
2018-07-07T00:34:41.410Z,70.00
2018-07-07T00:36:12.981Z,67.50
2018-07-07T00:37:44.553Z,64.20
2018-07-07T00:39:16.275Z,69.90
2018-07-07T00:40:47.698Z,75.30
2018-07-07T00:42:19.267Z,79.40
2018-07-07T00:43:50.839Z,74.90
2018-07-07T00:45:22.513Z,73.20
2018-07-07T00:46:53.982Z,74.30
2018-07-07T00:48:25.554Z,74.30
2018-07-07T00:49:57.125Z,75.40
2018-07-07T00:51:28.696Z,73.40
2018-07-07T00:53:00.268Z,77.40
2018-07-07T00:54:31.948Z,73.90
2018-07-07T00:56:03.410Z,75.80
2018-07-07T00:57:35.232Z,77.80
2018-07-07T00:59:06.553Z,72.60
2018-07-07T01:00:38.125Z,73.00
2018-07-07T01:02:09.696Z,75.10
2018-07-07T01:03:41.368Z,75.70
2018-07-07T01:05:12.838Z,75.90
2018-07-07T01:06:44.409Z,76.20
2018-07-07T01:08:15.983Z,70.00
2018-07-07T01:09:47.552Z,69.60
2018-07-07T01:11:19.123Z,71.50
2018-07-07T01:12:50.695Z,66.60
2018-07-07T01:14:22.266Z,67.10
2018-07-07T01:15:53.837Z,67.10
2018-07-07T01:17:25.417Z,64.40
2018-07-07T01:18:56.980Z,65.40
2018-07-07T01:20:28.552Z,63.60
2018-07-07T01:22:00.924Z,62.70
2018-07-07T01:23:31.694Z,60.10
2018-07-07T01:25:03.266Z,59.30
2018-07-07T01:26:34.837Z,56.70
2018-07-07T01:28:06.508Z,59.30
2018-07-07T01:29:37.979Z,59.60
2018-07-07T01:31:09.551Z,59.00
2018-07-07T01:32:41.124Z,57.40
2018-07-07T01:34:12.694Z,57.80
2018-07-07T01:35:44.267Z,62.70
2018-07-07T01:37:15.837Z,60.60
2018-07-07T01:38:47.409Z,60.70
2018-07-07T01:40:19.080Z,59.30
2018-07-07T01:41:50.552Z,64.20
2018-07-07T01:43:22.125Z,66.00
2018-07-07T01:44:53.695Z,68.70
2018-07-07T01:46:25.267Z,63.90
2018-07-07T01:47:56.837Z,66.20
2018-07-07T01:49:28.409Z,68.70
2018-07-07T01:50:59.980Z,68.40
2018-07-07T01:52:31.652Z,75.40
2018-07-07T01:54:03.123Z,74.60
2018-07-07T01:55:34.695Z,73.30
2018-07-07T01:57:06.267Z,72.90
2018-07-07T01:58:38.237Z,76.80
2018-07-07T02:00:09.408Z,74.60
2018-07-07T02:01:40.979Z,80.40
2018-07-07T02:03:12.550Z,81.70
2018-07-07T02:04:44.125Z,81.10
2018-07-07T02:06:15.693Z,85.50
2018-07-07T02:07:47.264Z,88.90
2018-07-07T02:09:18.836Z,91.50
2018-07-07T02:10:50.561Z,88.20
2018-07-07T02:12:21.978Z,86.80
2018-07-07T02:13:53.549Z,86.80
2018-07-07T02:15:25.122Z,84.90
2018-07-07T02:16:56.791Z,90.90
2018-07-07T02:18:28.792Z,84.40
2018-07-07T02:19:59.832Z,89.00
2018-07-07T02:21:31.403Z,93.60
2018-07-07T02:23:03.325Z,92.80
2018-07-07T02:24:34.548Z,98.30
2018-07-07T02:26:06.116Z,95.80
2018-07-07T02:27:37.688Z,90.90
2018-07-07T02:29:09.508Z,87.30
2018-07-07T02:30:40.830Z,89.30
2018-07-07T02:32:12.401Z,87.50
2018-07-07T02:33:43.971Z,89.30
2018-07-07T02:35:15.643Z,87.40
2018-07-07T02:36:47.118Z,86.40
2018-07-07T02:38:18.685Z,85.80
2018-07-07T02:39:50.259Z,86.00
2018-07-07T02:41:21.826Z,87.10
2018-07-07T02:42:53.402Z,88.00
2018-07-07T02:44:24.968Z,86.50
2018-07-07T02:45:56.539Z,85.30
2018-07-07T02:47:28.261Z,86.80
2018-07-07T02:48:59.681Z,84.90
2018-07-07T02:50:31.252Z,87.70
2018-07-07T02:52:02.822Z,93.10
2018-07-07T02:53:34.646Z,86.80
2018-07-07T02:55:05.964Z,83.10
2018-07-07T02:56:37.536Z,85.30
2018-07-07T02:58:09.107Z,85.70
2018-07-07T02:59:40.679Z,84.70
2018-07-07T03:01:12.248Z,85.90
2018-07-07T03:02:43.820Z,82.40
2018-07-07T03:04:15.391Z,86.80
2018-07-07T03:05:46.962Z,85.00
2018-07-07T03:07:18.536Z,83.00
2018-07-07T03:08:50.105Z,83.00
2018-07-07T03:10:21.675Z,79.70
2018-07-07T03:11:53.345Z,80.90
2018-07-07T03:13:24.818Z,86.70
2018-07-07T03:14:56.387Z,85.40
2018-07-07T03:16:27.963Z,80.90
2018-07-07T03:17:59.527Z,81.30
2018-07-07T03:19:31.098Z,79.20
2018-07-07T03:21:02.679Z,80.60
2018-07-07T03:22:34.241Z,80.20
2018-07-07T03:24:05.812Z,80.00
2018-07-07T03:25:37.382Z,79.60
2018-07-07T03:27:08.954Z,76.10
2018-07-07T03:28:40.525Z,79.00
2018-07-07T03:30:12.301Z,77.10
2018-07-07T03:31:43.667Z,81.10
2018-07-07T03:33:15.238Z,78.20
2018-07-07T03:34:46.808Z,75.20
2018-07-07T03:36:18.380Z,77.50
2018-07-07T03:37:49.950Z,79.70
2018-07-07T03:39:21.521Z,79.20
2018-07-07T03:40:53.092Z,80.60
2018-07-07T03:42:24.664Z,77.70
2018-07-07T03:43:56.234Z,76.50
2018-07-07T03:45:27.805Z,72.10
2018-07-07T03:46:59.376Z,73.30
2018-07-07T03:48:31.047Z,74.30
2018-07-07T03:50:02.519Z,72.80
2018-07-07T03:51:34.090Z,73.40
2018-07-07T03:53:05.660Z,73.80
2018-07-07T03:54:37.232Z,75.80
2018-07-07T03:56:08.803Z,76.60
2018-07-07T03:57:40.376Z,70.90
2018-07-07T03:59:11.944Z,70.90
2018-07-07T04:00:43.618Z,68.00
2018-07-07T04:02:15.087Z,69.70
2018-07-07T04:03:46.660Z,67.60
2018-07-07T04:05:18.228Z,63.80
2018-07-07T04:06:49.900Z,65.50
2018-07-07T04:08:21.370Z,63.50
2018-07-07T04:09:52.942Z,67.00
2018-07-07T04:11:24.514Z,67.30
2018-07-07T04:12:56.088Z,72.20
2018-07-07T04:14:27.657Z,67.30
2018-07-07T04:15:59.226Z,67.70
2018-07-07T04:17:30.797Z,66.40
2018-07-07T04:19:02.370Z,59.70
2018-07-07T04:20:33.939Z,61.50
2018-07-07T04:22:05.551Z,57.80
2018-07-07T04:23:37.081Z,59.60
2018-07-07T04:25:08.753Z,57.60
2018-07-07T04:26:40.222Z,58.00
2018-07-07T04:28:11.794Z,55.50
2018-07-07T04:29:43.368Z,57.20
2018-07-07T04:31:14.937Z,56.60
2018-07-07T04:32:46.518Z,59.90
2018-07-07T04:34:18.084Z,57.50
2018-07-07T04:35:49.651Z,53.70
2018-07-07T04:37:21.222Z,54.10
2018-07-07T04:38:52.794Z,54.20
2018-07-07T04:40:24.363Z,57.00
2018-07-07T04:41:55.937Z,54.20
2018-07-07T04:43:27.606Z,52.80
2018-07-07T04:44:59.077Z,52.70
2018-07-07T04:46:30.651Z,50.40
2018-07-07T04:48:02.219Z,49.80
2018-07-07T04:49:33.792Z,54.40
2018-07-07T04:51:05.361Z,53.60
2018-07-07T04:52:36.932Z,53.50
2018-07-07T04:54:08.503Z,52.60
2018-07-07T04:55:40.075Z,53.00
2018-07-07T04:57:11.645Z,57.30
2018-07-07T04:58:43.220Z,54.60
2018-07-07T05:00:14.787Z,54.20
2018-07-07T05:01:46.459Z,57.00
2018-07-07T05:03:17.929Z,56.90
2018-07-07T05:04:49.501Z,54.80
2018-07-07T05:06:21.071Z,55.80
2018-07-07T05:07:52.642Z,55.00
2018-07-07T05:09:24.212Z,58.70
2018-07-07T05:10:55.784Z,61.90
2018-07-07T05:12:27.355Z,61.30
2018-07-07T05:13:58.926Z,64.50
2018-07-07T05:15:30.553Z,61.10
2018-07-07T05:17:02.068Z,63.40
2018-07-07T05:18:33.638Z,62.00
2018-07-07T05:20:05.310Z,64.60
2018-07-07T05:21:36.784Z,65.40
2018-07-07T05:23:08.357Z,61.20
2018-07-07T05:24:39.922Z,62.00
2018-07-07T05:26:11.607Z,61.30
2018-07-07T05:27:43.067Z,63.90
2018-07-07T05:29:14.635Z,64.90
2018-07-07T05:30:46.206Z,65.10
2018-07-07T05:32:17.776Z,68.00
2018-07-07T05:33:49.347Z,68.90
2018-07-07T05:35:20.918Z,66.10
2018-07-07T05:36:52.489Z,69.90
2018-07-07T05:38:24.160Z,69.20
2018-07-07T05:39:55.630Z,68.40
2018-07-07T05:41:27.202Z,68.20
2018-07-07T05:42:58.772Z,73.20
2018-07-07T05:44:30.343Z,76.80
2018-07-07T05:46:01.914Z,78.80
2018-07-07T05:47:33.485Z,77.10
2018-07-07T05:49:05.057Z,77.80
2018-07-07T05:50:36.626Z,73.40
2018-07-07T05:52:08.197Z,71.40
2018-07-07T05:53:39.767Z,69.00
2018-07-07T05:55:11.339Z,73.50
2018-07-07T05:56:43.010Z,76.10
2018-07-07T05:58:14.480Z,71.50
2018-07-07T05:59:46.050Z,76.30
2018-07-07T06:01:17.621Z,72.30
2018-07-07T06:02:49.295Z,72.90
2018-07-07T06:04:20.763Z,63.90
2018-07-07T06:05:52.334Z,65.40
2018-07-07T06:07:23.904Z,67.30
2018-07-07T06:08:55.476Z,65.30
2018-07-07T06:10:27.047Z,66.80
2018-07-07T06:11:58.617Z,64.70
2018-07-07T06:13:30.187Z,64.70
2018-07-07T06:15:01.859Z,65.10
2018-07-07T06:16:33.331Z,65.70
2018-07-07T06:18:04.902Z,62.70
2018-07-07T06:19:36.503Z,64.60
2018-07-07T06:21:08.043Z,75.70
2018-07-07T06:22:39.615Z,68.30
2018-07-07T06:24:11.184Z,67.30
2018-07-07T06:25:42.758Z,69.00
2018-07-07T06:27:14.328Z,70.40
2018-07-07T06:28:45.900Z,69.30
2018-07-07T06:30:17.468Z,64.50
2018-07-07T06:31:49.040Z,65.50
2018-07-07T06:33:21.010Z,64.40
2018-07-07T06:34:52.180Z,69.00
2018-07-07T06:36:23.751Z,70.20
2018-07-07T06:37:55.321Z,68.00
2018-07-07T06:39:26.991Z,67.70
2018-07-07T06:40:58.462Z,67.50
2018-07-07T06:42:30.033Z,68.90
2018-07-07T06:44:01.603Z,70.60
2018-07-07T06:45:33.173Z,69.50
2018-07-07T06:47:04.744Z,70.50
2018-07-07T06:48:36.314Z,70.30
2018-07-07T06:50:07.888Z,73.10
2018-07-07T06:51:39.555Z,74.10
2018-07-07T06:53:11.025Z,71.00
2018-07-07T06:54:42.596Z,73.10
2018-07-07T06:56:14.166Z,73.80
2018-07-07T06:57:45.737Z,71.10
2018-07-07T06:59:17.306Z,74.30
2018-07-07T07:00:48.877Z,71.30
2018-07-07T07:02:20.447Z,67.20
2018-07-07T07:03:52.018Z,72.00
2018-07-07T07:05:23.588Z,71.30
2018-07-07T07:06:55.161Z,72.10
2018-07-07T07:08:26.728Z,71.30
2018-07-07T07:09:58.499Z,78.00
2018-07-07T07:11:29.870Z,77.90
2018-07-07T07:13:01.440Z,76.20
2018-07-07T07:14:33.010Z,69.30
2018-07-07T07:16:04.580Z,73.70
2018-07-07T07:17:36.151Z,76.60
2018-07-07T07:19:07.722Z,72.50
2018-07-07T07:20:39.296Z,76.60
2018-07-07T07:22:10.862Z,63.80
2018-07-07T07:23:42.432Z,71.10
2018-07-07T07:25:14.006Z,66.60
2018-07-07T07:26:45.572Z,68.60
2018-07-07T07:28:17.248Z,69.20
2018-07-07T07:29:48.713Z,69.50
2018-07-07T07:31:20.283Z,70.50
2018-07-07T07:32:51.853Z,69.40
2018-07-07T07:34:23.437Z,70.40
2018-07-07T07:35:55.010Z,71.10
2018-07-07T07:37:26.563Z,70.60
2018-07-07T07:38:58.137Z,68.80
2018-07-07T07:40:29.804Z,67.70
2018-07-07T07:42:01.274Z,66.70
2018-07-07T07:43:32.843Z,67.10
2018-07-07T07:45:04.414Z,69.10
2018-07-07T07:46:36.084Z,73.90
2018-07-07T07:48:07.554Z,67.60
2018-07-07T07:49:39.124Z,68.80
2018-07-07T07:51:10.693Z,64.90
2018-07-07T07:52:42.316Z,64.00
2018-07-07T07:54:13.833Z,65.40
2018-07-07T07:55:45.405Z,66.00
2018-07-07T07:57:16.973Z,67.10
2018-07-07T07:58:48.544Z,69.10
2018-07-07T08:00:20.113Z,62.80
2018-07-07T08:01:51.682Z,64.40
2018-07-07T08:03:23.253Z,69.50
2018-07-07T08:04:55.249Z,63.00
2018-07-07T08:06:26.391Z,79.80
2018-07-07T08:07:57.961Z,66.00
2018-07-07T08:09:29.531Z,66.20
2018-07-07T08:11:01.201Z,64.60
2018-07-07T08:12:32.670Z,64.60
2018-07-07T08:14:04.281Z,61.90
2018-07-07T08:15:35.813Z,63.90
2018-07-07T08:17:07.380Z,65.10
2018-07-07T08:18:38.948Z,66.70
2018-07-07T08:20:10.518Z,66.40
2018-07-07T08:21:42.088Z,70.60
2018-07-07T08:23:13.759Z,70.40
2018-07-07T08:24:45.227Z,69.50
2018-07-07T08:26:16.800Z,69.00
2018-07-07T08:27:48.369Z,73.40
2018-07-07T08:29:19.942Z,76.90
2018-07-07T08:30:51.506Z,79.80
2018-07-07T08:32:23.075Z,80.20
2018-07-07T08:33:54.644Z,65.90
2018-07-07T08:35:26.223Z,70.60
2018-07-07T08:36:57.783Z,68.80
2018-07-07T08:38:29.360Z,69.60
2018-07-07T08:40:00.923Z,80.30
2018-07-07T08:41:32.592Z,82.90
2018-07-07T08:43:04.062Z,76.90
2018-07-07T08:44:35.630Z,73.10
2018-07-07T08:46:07.200Z,74.10
2018-07-07T08:47:38.770Z,68.80
2018-07-07T08:49:10.340Z,65.20
2018-07-07T08:50:41.908Z,61.70
2018-07-07T08:52:13.478Z,60.40
2018-07-07T08:53:45.048Z,67.20
2018-07-07T08:55:16.617Z,69.20
2018-07-07T08:56:48.189Z,65.80
2018-07-07T08:58:19.756Z,72.00
2018-07-07T08:59:51.425Z,70.80
2018-07-07T09:01:22.894Z,63.50
2018-07-07T09:02:54.463Z,64.20
2018-07-07T09:04:26.034Z,73.20
2018-07-07T09:05:57.852Z,76.00
2018-07-07T09:07:29.171Z,87.50
2018-07-07T09:09:00.741Z,82.60
2018-07-07T09:10:32.309Z,72.60
2018-07-07T09:12:03.979Z,66.30
2018-07-07T09:13:35.449Z,63.30
2018-07-07T09:15:07.018Z,69.10
2018-07-07T09:16:38.588Z,76.10
2018-07-07T09:18:10.256Z,80.20
2018-07-07T09:19:41.726Z,76.70
2018-07-07T09:21:13.349Z,67.00
2018-07-07T09:22:44.864Z,68.50
2018-07-07T09:24:16.434Z,66.60
2018-07-07T09:25:48.004Z,74.30
2018-07-07T09:27:19.572Z,65.60
2018-07-07T09:28:51.142Z,76.80
2018-07-07T09:30:22.712Z,69.90
2018-07-07T09:31:54.281Z,68.40
2018-07-07T09:33:25.850Z,67.10
2018-07-07T09:34:57.421Z,63.20
2018-07-07T09:36:29.340Z,62.40
2018-07-07T09:38:00.559Z,63.70
2018-07-07T09:39:32.135Z,61.70
2018-07-07T09:41:03.701Z,62.40
2018-07-07T09:42:35.368Z,62.60
2018-07-07T09:44:06.908Z,67.30
2018-07-07T09:45:38.406Z,61.70
2018-07-07T09:47:09.975Z,67.00
2018-07-07T09:48:41.545Z,61.70
2018-07-07T09:50:13.115Z,66.10
2018-07-07T09:51:44.683Z,64.40
2018-07-07T09:53:16.255Z,64.40
2018-07-07T09:54:48.424Z,69.80
2018-07-07T09:56:19.418Z,73.10
2018-07-07T09:57:50.961Z,74.70
2018-07-07T09:59:22.530Z,72.80
2018-07-07T10:00:54.099Z,72.20
2018-07-07T10:02:25.677Z,64.90
2018-07-07T10:03:57.238Z,62.40
2018-07-07T10:05:28.807Z,64.10
2018-07-07T10:07:00.628Z,63.50
2018-07-07T10:08:31.949Z,66.50
2018-07-07T10:10:03.516Z,68.90
2018-07-07T10:11:35.086Z,69.00
2018-07-07T10:13:06.905Z,65.30
2018-07-07T10:16:09.794Z,65.30
2018-07-07T10:17:41.366Z,62.80
2018-07-07T10:19:12.933Z,59.70
2018-07-07T10:20:44.527Z,61.00
2018-07-07T10:22:16.077Z,64.00
2018-07-07T10:23:48.175Z,60.90
2018-07-07T10:25:19.214Z,62.20
2018-07-07T10:26:50.783Z,61.50
2018-07-07T10:28:22.356Z,63.00
2018-07-07T10:31:25.943Z,71.90
2018-07-07T10:32:57.065Z,68.80
2018-07-07T10:34:28.658Z,60.50
2018-07-07T10:37:31.846Z,61.00
2018-07-07T10:39:03.352Z,57.90
2018-07-07T10:40:34.923Z,55.80
2018-07-07T10:42:06.493Z,58.40
2018-07-07T10:43:38.573Z,56.80
2018-07-07T10:45:09.637Z,55.30
2018-07-07T10:46:41.513Z,56.40
2018-07-07T10:48:12.782Z,58.50
2018-07-07T10:49:44.454Z,55.30
2018-07-07T10:51:15.927Z,54.10
2018-07-07T10:52:47.500Z,53.30
2018-07-07T10:54:19.074Z,56.80
2018-07-07T10:55:50.647Z,55.70
2018-07-07T10:57:22.222Z,52.60
2018-07-07T10:58:54.097Z,51.40
2018-07-07T11:00:25.372Z,50.60
2018-07-07T11:01:56.947Z,48.90
2018-07-07T11:03:28.522Z,50.40
2018-07-07T11:05:00.097Z,50.40
2018-07-07T11:06:31.675Z,44.90
2018-07-07T11:08:03.350Z,40.40
2018-07-07T11:09:34.850Z,42.70
2018-07-07T11:11:06.404Z,43.00
2018-07-07T11:12:38.715Z,45.20
2018-07-07T11:14:09.862Z,43.20
2018-07-07T11:15:41.139Z,41.00
2018-07-07T11:18:44.292Z,42.60
2018-07-07T11:21:47.451Z,43.30
2018-07-07T11:23:19.027Z,44.60
2018-07-07T11:24:50.607Z,42.90
2018-07-07T11:26:22.185Z,44.60
2018-07-07T11:27:54.067Z,43.10
2018-07-07T11:29:25.342Z,43.10
2018-07-07T11:30:56.922Z,41.90
2018-07-07T11:32:28.500Z,42.30
2018-07-07T11:35:31.658Z,41.60
2018-07-07T11:37:03.343Z,40.70
2018-07-07T11:38:34.816Z,43.30
2018-07-07T11:40:06.395Z,41.80
2018-07-07T11:41:37.972Z,41.80
2018-07-07T11:43:10.084Z,41.50
2018-07-07T11:44:41.130Z,40.20
2018-07-07T11:46:12.709Z,41.30
2018-07-07T11:47:44.536Z,41.80
2018-07-07T11:50:47.445Z,42.70
2018-07-07T11:52:19.020Z,43.60
2018-07-07T11:53:50.598Z,42.40
2018-07-07T11:56:53.762Z,40.90
2018-07-07T11:58:25.334Z,39.70
2018-07-07T11:59:56.913Z,41.00
2018-07-07T12:01:28.494Z,41.10
2018-07-07T12:03:00.273Z,40.70
2018-07-07T12:04:31.734Z,40.90
2018-07-07T12:06:03.332Z,42.30
2018-07-07T12:07:34.809Z,39.50
2018-07-07T12:09:06.389Z,39.10
2018-07-07T12:10:37.974Z,39.80
2018-07-07T12:12:10.004Z,41.50
2018-07-07T12:13:41.135Z,39.80
2018-07-07T12:15:12.711Z,39.30
2018-07-07T12:16:44.291Z,39.00
2018-07-07T12:19:47.497Z,39.60
2018-07-07T12:21:19.035Z,38.10
2018-07-07T12:22:50.616Z,35.80
2018-07-07T12:24:22.198Z,39.30
2018-07-07T12:25:54.329Z,39.90
2018-07-07T12:27:25.362Z,37.70
2018-07-07T12:28:56.940Z,38.90
2018-07-07T12:30:28.520Z,37.80
2018-07-07T12:32:00.304Z,36.40
2018-07-07T12:35:03.263Z,38.70
2018-07-07T12:36:34.900Z,35.80
2018-07-07T12:38:06.425Z,37.00
2018-07-07T12:39:38.007Z,38.60
2018-07-07T12:41:09.790Z,38.20
2018-07-07T12:42:41.168Z,34.90
2018-07-07T12:44:12.849Z,35.40
2018-07-07T12:45:44.330Z,34.00
2018-07-07T12:48:47.493Z,36.50
2018-07-07T12:50:19.376Z,36.70
2018-07-07T12:51:50.673Z,36.90
2018-07-07T12:54:53.820Z,38.10
2018-07-07T12:56:25.397Z,36.40
2018-07-07T12:57:56.977Z,37.50
2018-07-07T12:59:28.562Z,34.40
2018-07-07T13:01:00.139Z,34.80
2018-07-07T13:02:32.022Z,34.20
2018-07-07T13:04:03.299Z,33.20
2018-07-07T13:05:34.880Z,34.20
2018-07-07T13:07:06.469Z,36.00
2018-07-07T13:08:38.041Z,36.10
2018-07-07T13:10:09.927Z,35.80
2018-07-07T13:11:41.506Z,37.30
2018-07-07T13:13:12.782Z,35.70
2018-07-07T13:14:44.612Z,36.00
2018-07-07T13:16:16.475Z,35.60
2018-07-07T13:17:47.523Z,36.70
2018-07-07T13:19:19.110Z,34.30
2018-07-07T13:20:52.010Z,36.30
2018-07-07T13:23:54.048Z,35.70
2018-07-07T13:26:57.008Z,37.60
2018-07-07T13:28:28.590Z,35.70
2018-07-07T13:30:00.381Z,35.90
2018-07-07T13:31:31.755Z,35.70
2018-07-07T13:33:03.345Z,35.20
2018-07-07T13:34:34.918Z,36.20
2018-07-07T13:36:06.494Z,36.80
2018-07-07T13:37:38.386Z,36.70
2018-07-07T13:39:09.762Z,36.80
2018-07-07T13:40:41.239Z,37.50
2018-07-07T13:42:12.818Z,38.70
2018-07-07T13:43:44.401Z,37.50
2018-07-07T13:45:16.270Z,35.60
2018-07-07T13:46:47.864Z,36.20
2018-07-07T13:48:19.445Z,35.90
2018-07-07T13:49:50.722Z,36.00
2018-07-07T13:51:22.412Z,35.70
2018-07-07T13:52:54.220Z,36.30
2018-07-07T13:55:57.045Z,34.90
2018-07-07T13:57:29.227Z,35.30
2018-07-07T13:59:00.206Z,30.10
2018-07-07T14:00:31.789Z,31.20
2018-07-07T14:02:03.369Z,31.30
2018-07-07T14:03:34.950Z,30.40
2018-07-07T14:05:06.533Z,26.40
2018-07-07T14:06:38.317Z,24.60
2018-07-07T14:08:09.696Z,25.10
2018-07-07T14:09:41.278Z,24.30
2018-07-07T14:11:12.859Z,23.40
2018-07-07T14:12:44.442Z,23.50
2018-07-07T14:14:16.079Z,24.70
2018-07-07T14:15:48.110Z,25.00
2018-07-07T14:18:50.823Z,23.40
2018-07-07T14:20:22.406Z,24.50
2018-07-07T14:23:25.563Z,30.70
2018-07-07T14:24:57.400Z,30.40
2018-07-07T14:26:28.679Z,30.80
2018-07-07T14:28:00.258Z,30.50
2018-07-07T14:29:32.047Z,34.60
2018-07-07T14:31:03.421Z,32.00
2018-07-07T14:32:35.005Z,29.60
2018-07-07T14:34:06.583Z,30.10
2018-07-07T14:37:09.947Z,29.00
2018-07-07T14:38:41.329Z,29.30
2018-07-07T14:40:12.909Z,30.50
2018-07-07T14:41:44.493Z,30.70
2018-07-07T14:43:16.075Z,28.80
2018-07-07T14:44:47.656Z,29.20
2018-07-07T14:46:19.239Z,29.40
2018-07-07T14:47:50.821Z,30.30
2018-07-07T14:50:53.988Z,29.30
2018-07-07T14:52:25.873Z,27.80
2018-07-07T14:53:57.151Z,27.40
2018-07-07T14:55:28.734Z,25.10
2018-07-07T14:57:00.717Z,24.50
2018-07-07T14:58:32.637Z,22.90
2018-07-07T15:00:03.482Z,23.80
2018-07-07T15:01:35.802Z,22.70
2018-07-07T15:03:06.649Z,22.20
2018-07-07T15:06:10.024Z,22.50
2018-07-07T15:07:41.397Z,21.70
2018-07-07T15:09:12.980Z,19.80
2018-07-07T15:12:16.351Z,18.60
2018-07-07T15:13:47.733Z,17.10
2018-07-07T15:15:20.215Z,18.50
2018-07-07T15:16:51.104Z,17.40
2018-07-07T15:18:22.480Z,16.20
2018-07-07T15:19:54.063Z,16.50
2018-07-07T15:21:25.647Z,16.00
2018-07-07T15:22:57.318Z,15.10
2018-07-07T15:24:28.813Z,14.70
2018-07-07T15:26:00.396Z,14.50
2018-07-07T15:27:32.080Z,13.10
2018-07-07T15:29:03.867Z,11.80
2018-07-07T15:30:35.150Z,12.10
2018-07-07T15:32:06.731Z,12.50
2018-07-07T15:33:38.414Z,11.90
2018-07-07T15:36:41.482Z,13.00
2018-07-07T15:38:13.069Z,13.40
2018-07-07T15:39:44.658Z,14.40
2018-07-07T15:42:48.024Z,13.80
2018-07-07T15:44:19.603Z,14.50
2018-07-07T15:45:51.204Z,15.30
2018-07-07T15:47:22.571Z,14.80
2018-07-07T15:48:54.355Z,14.40
2018-07-07T15:51:57.418Z,14.30
2018-07-07T15:53:28.907Z,13.80
2018-07-07T15:55:00.485Z,14.60
2018-07-07T15:56:32.271Z,14.00
2018-07-07T15:58:04.287Z,14.70
2018-07-07T15:59:35.236Z,14.70
2018-07-07T16:01:06.819Z,15.40
2018-07-07T16:02:38.723Z,14.00
2018-07-07T16:04:09.987Z,14.10
2018-07-07T16:07:13.152Z,13.90
2018-07-07T16:08:45.045Z,12.10
2018-07-07T16:10:16.419Z,13.20
2018-07-07T16:13:19.486Z,11.40
2018-07-07T16:14:51.070Z,12.40
2018-07-07T16:17:54.238Z,12.00
2018-07-07T16:19:26.432Z,11.20
2018-07-07T16:20:57.406Z,12.30
2018-07-07T16:22:28.990Z,11.20
2018-07-07T16:24:00.778Z,10.70
2018-07-07T16:25:32.362Z,10.40
2018-07-07T16:27:03.743Z,9.70
2018-07-07T16:28:35.357Z,9.30
2018-07-07T16:30:07.129Z,8.60
2018-07-07T16:34:41.669Z,6.90
2018-07-07T16:36:13.250Z,8.30
2018-07-07T16:37:44.833Z,7.90
2018-07-07T16:39:16.417Z,7.70
2018-07-07T16:40:48.005Z,8.10
2018-07-07T16:42:20.118Z,8.50
2018-07-07T16:43:51.169Z,8.10
2018-07-07T16:45:23.067Z,8.50
2018-07-07T16:46:54.337Z,8.40
2018-07-07T16:49:58.137Z,7.90
2018-07-07T16:53:00.671Z,8.30
2018-07-07T16:54:32.862Z,8.70
2018-07-07T16:57:35.423Z,9.00
2018-07-07T16:59:07.004Z,7.90
2018-07-07T17:00:38.588Z,7.90
2018-07-07T17:02:10.171Z,7.60
2018-07-07T17:03:41.956Z,8.30
2018-07-07T17:05:13.338Z,8.00
2018-07-07T17:06:44.920Z,8.00
2018-07-07T17:08:16.504Z,8.30
2018-07-07T17:09:48.390Z,8.90
2018-07-07T17:11:19.671Z,9.00
2018-07-07T17:12:51.253Z,8.90
2018-07-07T17:14:22.836Z,9.30
2018-07-07T17:15:54.420Z,9.20
2018-07-07T17:17:26.536Z,8.10
2018-07-07T17:18:58.525Z,8.50
2018-07-07T17:20:29.170Z,8.30
2018-07-07T17:22:00.854Z,8.00
2018-07-07T17:23:32.540Z,7.50
2018-07-07T17:26:35.502Z,7.40
2018-07-07T17:28:07.184Z,7.30
2018-07-07T17:29:38.667Z,6.70
2018-07-07T17:31:10.252Z,7.30
2018-07-07T17:32:41.843Z,7.70
2018-07-07T17:34:13.719Z,8.50
2018-07-07T17:35:45.001Z,8.20
2018-07-07T17:37:16.888Z,9.00
2018-07-07T17:40:20.049Z,9.20
2018-07-07T17:41:51.329Z,11.70
2018-07-07T17:43:22.910Z,11.00
2018-07-07T17:44:54.494Z,11.50
2018-07-07T17:46:26.378Z,11.50
2018-07-07T17:47:58.189Z,10.80
2018-07-07T17:49:29.292Z,11.00
2018-07-07T17:51:00.822Z,10.60
2018-07-07T17:52:32.659Z,9.60
2018-07-07T17:54:04.292Z,9.30
2018-07-07T17:55:36.102Z,10.30
2018-07-07T17:57:07.686Z,9.90
2018-07-07T17:58:38.740Z,9.70
2018-07-07T18:00:10.321Z,10.60
2018-07-07T18:03:13.483Z,10.40
2018-07-07T18:04:45.267Z,11.10
2018-07-07T18:06:18.578Z,10.70
2018-07-07T18:07:48.434Z,9.70
2018-07-07T18:09:20.321Z,9.80
2018-07-07T18:10:51.397Z,9.50
2018-07-07T18:12:22.979Z,9.40
2018-07-07T18:13:54.562Z,8.30
2018-07-07T18:16:57.727Z,8.80
2018-07-07T18:18:29.309Z,8.60
2018-07-07T18:20:00.895Z,9.30
2018-07-07T18:21:32.474Z,7.80
2018-07-07T18:23:04.159Z,8.10
2018-07-07T18:24:35.638Z,8.10
2018-07-07T18:26:07.220Z,7.40
2018-07-07T18:27:38.802Z,8.90
2018-07-07T18:29:10.386Z,8.20
2018-07-07T18:30:42.270Z,8.70
2018-07-07T18:32:13.859Z,8.70
2018-07-07T18:33:45.129Z,8.00
2018-07-07T18:35:16.710Z,7.90
2018-07-07T18:36:48.595Z,9.10
2018-07-07T18:39:51.454Z,9.20
2018-07-07T18:41:23.135Z,8.80
2018-07-07T18:42:54.615Z,8.50
2018-07-07T18:44:26.400Z,8.50
2018-07-07T18:45:58.284Z,8.30
2018-07-07T18:47:29.362Z,7.90
2018-07-07T18:49:00.939Z,8.80
2018-07-07T18:50:32.519Z,7.50
2018-07-07T18:52:05.111Z,8.30
2018-07-07T18:55:07.266Z,8.60
2018-07-07T18:56:38.852Z,7.70
2018-07-07T18:58:10.427Z,9.30
2018-07-07T18:59:42.005Z,9.50
2018-07-07T19:01:13.686Z,10.00
2018-07-07T19:02:45.166Z,10.20
2018-07-07T19:04:16.746Z,8.90
2018-07-07T19:05:48.327Z,9.70
2018-07-07T19:08:51.489Z,9.70
2018-07-07T19:10:23.067Z,9.70
2018-07-07T19:11:54.647Z,9.40
2018-07-07T19:13:26.227Z,9.00
2018-07-07T19:14:58.015Z,9.00
2018-07-07T19:16:29.387Z,8.50
2018-07-07T19:18:00.971Z,8.90
2018-07-07T19:19:32.547Z,9.10
2018-07-07T19:21:04.227Z,8.20
2018-07-07T19:22:35.709Z,7.90
2018-07-07T19:24:07.286Z,8.40
2018-07-07T19:25:38.865Z,7.90
2018-07-07T19:27:10.750Z,8.90
2018-07-07T19:28:42.059Z,8.50
2018-07-07T19:30:14.210Z,8.50
2018-07-07T19:31:45.183Z,8.80
2018-07-07T19:33:16.765Z,8.30
2018-07-07T19:34:48.343Z,7.90
2018-07-07T19:36:19.921Z,7.90
2018-07-07T19:37:51.500Z,8.80
2018-07-07T19:39:24.122Z,7.70
2018-07-07T19:40:54.659Z,8.00
2018-07-07T19:42:26.238Z,8.90
2018-07-07T19:43:58.269Z,7.70
2018-07-07T19:45:29.598Z,8.00
2018-07-07T19:47:02.087Z,9.30
2018-07-07T19:50:04.666Z,9.50
2018-07-07T19:51:35.711Z,10.00
2018-07-07T19:53:07.289Z,10.40
2018-07-07T19:54:38.867Z,9.70
2018-07-07T19:56:10.445Z,10.60
2018-07-07T19:57:42.127Z,10.00
2018-07-07T19:59:13.604Z,10.00
2018-07-07T20:00:45.181Z,10.00
2018-07-07T20:02:16.765Z,10.80
2018-07-07T20:03:48.338Z,10.50
2018-07-07T20:05:19.915Z,10.20
2018-07-07T20:06:51.498Z,10.70
2018-07-07T20:08:23.070Z,10.90
2018-07-07T20:09:54.747Z,11.80
2018-07-07T20:11:26.227Z,12.60
2018-07-07T20:12:57.854Z,12.10
2018-07-07T20:14:29.380Z,11.80
2018-07-07T20:16:01.058Z,12.10
2018-07-07T20:19:04.112Z,11.80
2018-07-07T20:20:35.689Z,12.20
2018-07-07T20:22:07.302Z,12.40
2018-07-07T20:23:38.844Z,11.80
2018-07-07T20:25:10.420Z,12.10
2018-07-07T20:26:41.997Z,11.20
2018-07-07T20:28:13.573Z,11.50
2018-07-07T20:29:45.152Z,11.60
2018-07-07T20:31:16.727Z,12.70
2018-07-07T20:32:48.304Z,11.90
2018-07-07T20:34:19.980Z,12.50
2018-07-07T20:35:51.456Z,12.60
2018-07-07T20:37:23.033Z,14.20
2018-07-07T20:38:54.610Z,12.60
2018-07-07T20:40:26.286Z,12.80
2018-07-07T20:41:57.763Z,13.30
2018-07-07T20:43:29.337Z,12.00
2018-07-07T20:45:00.912Z,13.00
2018-07-07T20:46:32.488Z,13.00
2018-07-07T20:48:04.069Z,13.00
2018-07-07T20:49:35.640Z,13.20